createdAt,value
2019-01-15T00:02:28.826Z,80.89
2019-01-15T00:04:59.976Z,80.89
2019-01-15T00:07:31.157Z,81.02
2019-01-15T00:10:02.183Z,81.02
2019-01-15T00:12:32.979Z,81.09
2019-01-15T00:15:04.018Z,80.85
2019-01-15T00:17:34.624Z,81.04
2019-01-15T00:20:06.385Z,80.92
2019-01-15T00:22:37.279Z,80.88
2019-01-15T00:25:08.198Z,80.85
2019-01-15T00:27:39.353Z,80.89
2019-01-15T00:30:12.737Z,80.82
2019-01-15T00:32:43.357Z,80.70
2019-01-15T00:35:14.342Z,80.56
2019-01-15T00:37:45.020Z,80.35
2019-01-15T00:40:17.241Z,80.10
2019-01-15T00:42:47.941Z,80.32
2019-01-15T00:45:18.566Z,80.36
2019-01-15T00:47:49.252Z,80.38
2019-01-15T00:50:20.247Z,80.33
2019-01-15T00:52:51.100Z,79.96
2019-01-15T00:55:22.128Z,80.00
2019-01-15T00:57:53.078Z,80.06
2019-01-15T01:00:24.349Z,80.08
2019-01-15T01:02:54.981Z,79.96
2019-01-15T01:05:25.661Z,79.91
2019-01-15T01:07:56.643Z,79.86
2019-01-15T01:10:27.256Z,79.68
2019-01-15T01:12:57.931Z,79.65
2019-01-15T01:15:29.168Z,79.66
2019-01-15T01:18:00.407Z,79.76
2019-01-15T01:20:33.086Z,79.75
2019-01-15T01:23:03.743Z,79.73
2019-01-15T01:25:34.340Z,79.54
2019-01-15T01:28:05.321Z,79.54
2019-01-15T01:30:36.468Z,79.37
2019-01-15T01:33:07.193Z,79.32
2019-01-15T01:35:38.234Z,79.46
2019-01-15T01:38:09.227Z,79.53
2019-01-15T01:40:39.904Z,79.28
2019-01-15T01:43:10.671Z,79.26
2019-01-15T01:45:41.230Z,79.50
2019-01-15T01:48:11.989Z,79.58
2019-01-15T01:50:42.683Z,79.45
2019-01-15T01:53:13.517Z,79.48
2019-01-15T01:55:44.457Z,79.65
2019-01-15T01:58:15.446Z,79.63
2019-01-15T02:00:46.253Z,79.50
2019-01-15T02:03:17.514Z,79.50
2019-01-15T02:05:48.617Z,79.39
2019-01-15T02:08:19.309Z,79.42
2019-01-15T02:10:49.981Z,79.23
2019-01-15T02:13:20.993Z,79.22
2019-01-15T02:15:52.188Z,79.28
2019-01-15T02:18:22.792Z,79.27
2019-01-15T02:20:53.823Z,79.16
2019-01-15T02:23:24.470Z,78.82
2019-01-15T02:25:55.097Z,78.82
2019-01-15T02:28:25.765Z,78.90
2019-01-15T02:30:56.645Z,78.65
2019-01-15T02:33:27.626Z,78.59
2019-01-15T02:35:58.429Z,78.55
2019-01-15T02:38:29.157Z,78.55
2019-01-15T02:41:00.235Z,78.65
2019-01-15T02:43:31.403Z,78.66
2019-01-15T02:46:02.327Z,78.52
2019-01-15T02:48:33.158Z,78.71
2019-01-15T02:51:03.945Z,78.51
2019-01-15T02:53:34.581Z,78.59
2019-01-15T02:56:05.247Z,78.49
2019-01-15T02:58:35.908Z,78.45
2019-01-15T03:01:06.570Z,78.31
2019-01-15T03:03:37.279Z,78.44
2019-01-15T03:06:07.991Z,78.32
2019-01-15T03:08:38.876Z,78.26
2019-01-15T03:11:10.062Z,78.24
2019-01-15T03:13:40.731Z,78.15
2019-01-15T03:16:11.423Z,77.90
2019-01-15T03:18:42.052Z,78.14
2019-01-15T03:21:12.757Z,78.16
2019-01-15T03:23:43.668Z,78.00
2019-01-15T03:26:14.322Z,77.99
2019-01-15T03:28:45.366Z,77.98
2019-01-15T03:31:15.996Z,77.65
2019-01-15T03:33:46.914Z,77.82
2019-01-15T03:36:17.655Z,78.02
2019-01-15T03:38:48.334Z,77.81
2019-01-15T03:41:19.024Z,77.84
2019-01-15T03:43:49.711Z,78.11
2019-01-15T03:46:20.333Z,78.00
2019-01-15T03:48:50.945Z,77.84
2019-01-15T03:51:21.916Z,77.74
2019-01-15T03:53:52.543Z,78.01
2019-01-15T03:56:23.177Z,77.96
2019-01-15T03:58:55.206Z,77.98
2019-01-15T04:01:26.138Z,78.05
2019-01-15T04:03:56.850Z,78.07
2019-01-15T04:06:27.530Z,78.23
2019-01-15T04:08:59.027Z,78.49
2019-01-15T04:11:30.037Z,78.62
2019-01-15T04:14:01.344Z,78.59
2019-01-15T04:16:32.355Z,78.45
2019-01-15T04:19:02.990Z,78.46
2019-01-15T04:21:33.686Z,78.61
2019-01-15T04:24:04.335Z,78.61
2019-01-15T04:26:34.969Z,78.59
2019-01-15T04:29:05.708Z,78.53
2019-01-15T04:31:36.332Z,78.58
2019-01-15T04:34:07.261Z,78.41
2019-01-15T04:36:37.931Z,78.44
2019-01-15T04:39:09.706Z,78.61
2019-01-15T04:41:40.643Z,78.76
2019-01-15T04:44:11.921Z,78.77
2019-01-15T04:46:43.180Z,78.91
2019-01-15T04:49:14.129Z,78.97
2019-01-15T04:51:45.228Z,78.93
2019-01-15T04:54:15.971Z,79.07
2019-01-15T04:56:46.900Z,79.12
2019-01-15T04:59:17.849Z,79.06
2019-01-15T05:01:48.888Z,79.27
2019-01-15T05:04:19.558Z,79.34
2019-01-15T05:06:50.300Z,79.30
2019-01-15T05:09:20.952Z,79.38
2019-01-15T05:11:51.752Z,79.21
2019-01-15T05:14:22.521Z,79.34
2019-01-15T05:16:53.499Z,79.36
2019-01-15T05:19:24.181Z,79.46
2019-01-15T05:21:55.281Z,79.58
2019-01-15T05:24:26.209Z,79.68
2019-01-15T05:26:56.843Z,79.77
2019-01-15T05:29:27.841Z,79.53
2019-01-15T05:31:58.520Z,79.36
2019-01-15T05:34:29.267Z,79.45
2019-01-15T05:37:00.363Z,79.56
2019-01-15T05:39:31.954Z,79.40
2019-01-15T05:42:02.558Z,79.46
2019-01-15T05:44:33.624Z,79.52
2019-01-15T05:47:04.403Z,79.54
2019-01-15T05:49:35.108Z,79.57
2019-01-15T05:52:05.876Z,79.59
2019-01-15T05:54:37.251Z,79.47
2019-01-15T05:57:07.917Z,79.76
2019-01-15T05:59:38.572Z,79.65
2019-01-15T06:02:09.175Z,79.61
2019-01-15T06:04:39.695Z,79.62
2019-01-15T06:07:10.701Z,79.42
2019-01-15T06:09:41.753Z,79.32
2019-01-15T06:12:12.877Z,79.38
2019-01-15T06:14:43.589Z,79.38
2019-01-15T06:17:14.871Z,79.37
2019-01-15T06:19:46.241Z,79.22
2019-01-15T06:22:17.207Z,78.99
2019-01-15T06:24:47.846Z,79.20
2019-01-15T06:27:19.499Z,78.76
2019-01-15T06:29:50.220Z,78.60
2019-01-15T06:32:20.831Z,78.79
2019-01-15T06:34:51.739Z,78.45
2019-01-15T06:37:22.393Z,78.29
2019-01-15T06:39:52.990Z,78.36
2019-01-15T06:42:23.605Z,78.07
2019-01-15T06:44:54.557Z,77.83
2019-01-15T06:47:25.528Z,77.68
2019-01-15T06:49:56.412Z,77.20
2019-01-15T06:52:27.079Z,77.40
2019-01-15T06:54:57.719Z,77.57
2019-01-15T06:57:30.748Z,77.55
2019-01-15T07:00:01.748Z,77.64
2019-01-15T07:02:32.896Z,77.53
2019-01-15T07:05:03.683Z,77.47
2019-01-15T07:07:34.762Z,77.46
2019-01-15T07:10:07.678Z,77.25
2019-01-15T07:12:38.649Z,76.90
2019-01-15T07:15:09.641Z,77.14
2019-01-15T07:17:40.638Z,77.43
2019-01-15T07:20:12.873Z,77.23
2019-01-15T07:22:43.935Z,77.14
2019-01-15T07:25:15.943Z,77.11
2019-01-15T07:27:46.661Z,77.01
2019-01-15T07:30:34.211Z,77.03
2019-01-15T07:33:05.167Z,77.01
2019-01-15T07:35:35.836Z,77.31
2019-01-15T07:38:06.558Z,77.46
2019-01-15T07:40:37.497Z,77.58
2019-01-15T07:43:09.054Z,77.84
2019-01-15T07:45:40.022Z,77.91
2019-01-15T07:48:11.085Z,77.98
2019-01-15T07:50:42.310Z,77.97
2019-01-15T07:53:13.452Z,78.19
2019-01-15T07:55:44.442Z,78.27
2019-01-15T07:58:15.436Z,78.38
2019-01-15T08:00:46.215Z,78.33
2019-01-15T08:03:17.755Z,78.53
2019-01-15T08:05:48.685Z,78.45
2019-01-15T08:08:19.838Z,78.62
2019-01-15T08:10:56.798Z,78.60
2019-01-15T08:13:23.330Z,78.63
2019-01-15T08:15:54.052Z,78.70
2019-01-15T08:18:25.034Z,78.85
2019-01-15T08:20:55.653Z,78.97
2019-01-15T08:23:26.677Z,79.02
2019-01-15T08:25:57.848Z,79.09
2019-01-15T08:28:28.888Z,79.35
2019-01-15T08:30:59.559Z,79.50
2019-01-15T08:33:30.501Z,79.52
2019-01-15T08:36:01.430Z,79.58
2019-01-15T08:38:32.851Z,79.64
2019-01-15T08:41:03.766Z,79.76
2019-01-15T08:43:34.463Z,79.88
2019-01-15T08:46:05.194Z,79.96
2019-01-15T08:48:36.510Z,80.20
2019-01-15T08:51:09.153Z,80.30
2019-01-15T08:53:40.848Z,80.23
2019-01-15T08:56:12.063Z,80.12
2019-01-15T08:58:42.959Z,80.26
2019-01-15T09:01:13.917Z,80.26
2019-01-15T09:03:44.921Z,80.30
2019-01-15T09:06:16.955Z,80.38
2019-01-15T09:08:47.687Z,80.29
2019-01-15T09:11:18.380Z,80.07
2019-01-15T09:13:49.573Z,80.27
2019-01-15T09:16:20.568Z,80.40
2019-01-15T09:18:51.303Z,80.36
2019-01-15T09:21:22.283Z,79.80
2019-01-15T09:23:52.982Z,80.05
2019-01-15T09:26:24.006Z,79.57
2019-01-15T09:28:54.965Z,80.25
2019-01-15T09:31:25.689Z,80.01
2019-01-15T09:33:56.639Z,80.53
2019-01-15T09:36:27.913Z,80.81
2019-01-15T09:38:58.618Z,80.56
2019-01-15T09:41:29.331Z,80.89
2019-01-15T09:44:00.630Z,81.09
2019-01-15T09:46:33.045Z,81.17
2019-01-15T09:49:03.791Z,81.64
2019-01-15T09:51:34.478Z,81.56
2019-01-15T09:54:06.193Z,82.04
2019-01-15T09:56:37.487Z,82.56
2019-01-15T09:59:08.668Z,82.85
2019-01-15T10:01:40.349Z,83.15
2019-01-15T10:04:11.591Z,82.69
2019-01-15T10:06:43.117Z,82.79
2019-01-15T10:09:15.316Z,82.64
2019-01-15T10:11:46.561Z,83.24
2019-01-15T10:14:17.979Z,82.87
2019-01-15T10:16:49.596Z,83.67
2019-01-15T10:19:21.189Z,83.35
2019-01-15T10:21:52.516Z,83.58
2019-01-15T10:24:25.996Z,83.33
2019-01-15T10:26:58.242Z,83.70
2019-01-15T10:29:30.191Z,84.16
2019-01-15T10:32:44.385Z,84.29
2019-01-15T10:35:57.238Z,84.21
2019-01-15T10:38:30.487Z,84.39
2019-01-15T10:41:01.974Z,84.54
2019-01-15T10:43:34.928Z,84.14
2019-01-15T10:46:07.565Z,84.36
2019-01-15T10:48:39.058Z,84.08
2019-01-15T10:51:10.695Z,84.00
2019-01-15T10:53:42.242Z,84.22
2019-01-15T10:56:13.820Z,83.95
2019-01-15T10:58:45.039Z,83.67
2019-01-15T11:01:16.367Z,83.44
2019-01-15T11:03:48.021Z,83.52
2019-01-15T11:06:19.279Z,83.15
2019-01-15T11:08:50.529Z,83.09
2019-01-15T11:11:22.071Z,82.98
2019-01-15T11:13:53.771Z,83.28
2019-01-15T11:16:25.190Z,83.32
2019-01-15T11:18:56.753Z,83.32
2019-01-15T11:21:28.467Z,82.96
2019-01-15T11:24:00.024Z,83.41
2019-01-15T11:26:31.406Z,82.95
2019-01-15T11:29:02.982Z,83.04
2019-01-15T11:31:34.208Z,82.74
2019-01-15T11:34:05.492Z,82.58
2019-01-15T11:36:36.747Z,82.65
2019-01-15T11:39:11.205Z,82.14
2019-01-15T11:41:42.686Z,82.18
2019-01-15T11:44:13.995Z,82.62
2019-01-15T11:46:45.183Z,82.25
2019-01-15T11:49:16.726Z,82.21
2019-01-15T11:51:48.680Z,82.32
2019-01-15T11:54:20.334Z,82.20
2019-01-15T11:56:51.892Z,82.09
2019-01-15T11:59:23.440Z,82.36
2019-01-15T12:02:22.225Z,82.31
2019-01-15T12:05:07.607Z,82.53
2019-01-15T12:07:57.043Z,82.69
2019-01-15T12:10:46.107Z,82.00
2019-01-15T12:13:48.464Z,82.42
2019-01-15T12:16:41.044Z,82.40
2019-01-15T12:19:31.475Z,82.40
2019-01-15T12:22:24.551Z,82.59
2019-01-15T12:25:12.802Z,82.58
2019-01-15T12:28:01.375Z,82.79
2019-01-15T12:31:04.329Z,82.79
2019-01-15T12:34:09.579Z,82.51
2019-01-15T12:36:57.866Z,82.51
2019-01-15T12:39:53.739Z,83.04
2019-01-15T12:42:50.129Z,82.32
2019-01-15T12:45:48.899Z,82.56
2019-01-15T12:48:37.893Z,82.16
2019-01-15T12:51:33.979Z,82.37
2019-01-15T12:54:40.411Z,82.06
2019-01-15T12:57:30.454Z,81.45
2019-01-15T13:00:29.320Z,81.54
2019-01-15T13:03:19.910Z,81.51
2019-01-15T13:06:10.146Z,81.75
2019-01-15T13:08:57.639Z,81.83
2019-01-15T13:11:59.495Z,81.59
2019-01-15T13:14:47.807Z,81.85
2019-01-15T13:17:37.509Z,81.72
2019-01-15T13:20:30.326Z,81.65
2019-01-15T13:23:24.148Z,81.67
2019-01-15T13:26:12.945Z,81.72
2019-01-15T13:29:15.580Z,81.88
2019-01-15T13:32:02.338Z,82.16
2019-01-15T13:34:55.177Z,82.16
2019-01-15T13:37:46.736Z,82.16
2019-01-15T13:40:42.447Z,81.93
2019-01-15T13:43:25.234Z,81.69
2019-01-15T13:46:12.329Z,81.46
2019-01-15T13:48:53.155Z,81.74
2019-01-15T13:51:42.422Z,81.40
2019-01-15T13:54:31.520Z,81.99
2019-01-15T13:57:31.099Z,81.57
2019-01-15T14:00:18.549Z,81.98
2019-01-15T14:03:20.650Z,81.86
2019-01-15T14:06:21.022Z,81.62
2019-01-15T14:09:18.932Z,81.55
2019-01-15T14:11:59.586Z,81.51
2019-01-15T14:14:48.294Z,81.89
2019-01-15T14:17:35.840Z,82.12
2019-01-15T14:20:32.586Z,82.17
2019-01-15T14:23:24.644Z,82.10
2019-01-15T14:26:13.328Z,82.32
2019-01-15T14:29:03.925Z,82.54
2019-01-15T14:31:59.927Z,82.65
2019-01-15T14:34:52.680Z,82.42
2019-01-15T14:37:42.622Z,82.89
2019-01-15T14:40:48.322Z,82.68
2019-01-15T14:43:49.850Z,82.65
2019-01-15T14:46:39.306Z,83.14
2019-01-15T14:49:28.219Z,82.82
2019-01-15T14:52:11.487Z,82.43
2019-01-15T14:55:00.256Z,82.80
2019-01-15T14:57:45.082Z,82.71
2019-01-15T15:00:47.499Z,82.67
2019-01-15T15:03:43.733Z,82.65
2019-01-15T15:06:32.379Z,82.88
2019-01-15T15:09:20.816Z,83.00
2019-01-15T15:12:13.505Z,83.00
2019-01-15T15:15:09.620Z,83.02
2019-01-15T15:18:04.696Z,82.94
2019-01-15T15:21:03.466Z,83.12
2019-01-15T15:23:50.842Z,83.29
2019-01-15T15:26:34.824Z,82.64
2019-01-15T15:29:37.180Z,82.95
2019-01-15T15:32:45.388Z,82.67
2019-01-15T15:35:33.723Z,83.15
2019-01-15T15:38:29.988Z,82.82
2019-01-15T15:41:18.617Z,82.86
2019-01-15T15:44:14.395Z,82.86
2019-01-15T15:47:13.266Z,83.35
2019-01-15T15:50:06.267Z,83.35
2019-01-15T15:52:54.856Z,82.99
2019-01-15T15:55:43.600Z,82.96
2019-01-15T15:58:32.203Z,82.84
2019-01-15T16:01:31.828Z,83.14
2019-01-15T16:04:33.397Z,82.89
2019-01-15T16:07:35.319Z,83.00
2019-01-15T16:10:26.988Z,83.03
2019-01-15T16:13:25.681Z,83.04
2019-01-15T16:24:09.426Z,83.21
2019-01-15T16:26:59.413Z,82.82
2019-01-15T16:29:48.121Z,82.77
2019-01-15T16:32:36.449Z,83.22
2019-01-15T16:35:29.793Z,83.42
2019-01-15T16:38:19.730Z,83.59
2019-01-15T16:41:11.752Z,83.59
2019-01-15T16:43:59.910Z,83.70
2019-01-15T16:47:08.086Z,83.36
2019-01-15T16:49:55.456Z,83.65
2019-01-15T16:52:43.972Z,83.33
2019-01-15T16:55:52.354Z,83.48
2019-01-15T16:58:42.282Z,83.50
2019-01-15T17:01:32.232Z,83.25
2019-01-15T17:04:21.064Z,82.83
2019-01-15T17:07:10.169Z,83.06
2019-01-15T17:09:53.575Z,83.25
2019-01-15T17:12:42.490Z,83.33
2019-01-15T17:15:50.668Z,83.31
2019-01-15T17:18:46.674Z,83.52
2019-01-15T17:21:35.939Z,83.71
2019-01-15T17:24:26.078Z,83.40
2019-01-15T17:27:19.492Z,83.31
2019-01-15T17:30:11.287Z,83.47
2019-01-15T17:33:00.094Z,83.54
2019-01-15T17:35:59.010Z,83.78
2019-01-15T17:39:01.777Z,83.50
2019-01-15T17:41:59.089Z,83.65
2019-01-15T17:44:39.072Z,83.67
2019-01-15T17:47:41.531Z,83.59
2019-01-15T17:50:39.882Z,83.70
2019-01-15T17:53:33.134Z,83.54
2019-01-15T17:56:21.781Z,83.49
2019-01-15T17:59:20.323Z,83.53
2019-01-15T18:02:13.682Z,83.75
2019-01-15T18:05:02.773Z,84.19
2019-01-15T18:08:07.005Z,83.99
2019-01-15T18:11:03.631Z,84.34
2019-01-15T18:13:52.225Z,84.11
2019-01-15T18:16:38.902Z,84.38
2019-01-15T18:19:44.168Z,84.52
2019-01-15T18:22:37.461Z,84.92
2019-01-15T18:25:43.177Z,84.89
2019-01-15T18:28:28.836Z,85.26
2019-01-15T18:31:22.206Z,85.10
2019-01-15T18:34:16.369Z,85.19
2019-01-15T18:37:05.251Z,85.49
2019-01-15T18:40:04.422Z,85.38
2019-01-15T18:42:52.570Z,86.05
2019-01-15T18:45:57.782Z,85.81
2019-01-15T18:49:02.959Z,85.75
2019-01-15T18:51:51.316Z,86.03
2019-01-15T18:54:56.808Z,86.11
2019-01-15T18:57:45.380Z,86.13
2019-01-15T19:00:38.385Z,86.46
2019-01-15T19:03:34.351Z,86.18
2019-01-15T19:06:24.111Z,86.10
2019-01-15T19:09:19.915Z,86.29
2019-01-15T19:12:11.951Z,85.99
2019-01-15T19:14:53.829Z,86.07
2019-01-15T19:17:46.903Z,85.94
2019-01-15T19:20:38.305Z,86.51
2019-01-15T19:23:26.937Z,85.94
2019-01-15T19:26:17.130Z,86.27
2019-01-15T19:28:59.068Z,86.57
2019-01-15T19:32:04.645Z,86.16
2019-01-15T19:34:49.406Z,86.54
2019-01-15T19:37:31.240Z,86.18
2019-01-15T19:40:25.152Z,86.16
2019-01-15T19:43:14.443Z,86.27
2019-01-15T19:46:04.472Z,86.43
2019-01-15T19:49:03.281Z,86.41
2019-01-15T19:52:03.540Z,86.09
2019-01-15T19:54:52.907Z,86.24
2019-01-15T19:57:42.756Z,86.58
2019-01-15T20:00:34.070Z,86.19
2019-01-15T20:03:27.186Z,86.27
2019-01-15T20:06:17.370Z,86.39
2019-01-15T20:09:06.305Z,85.87
2019-01-15T20:11:49.224Z,86.39
2019-01-15T20:14:45.570Z,86.19
2019-01-15T20:17:34.803Z,86.11
2019-01-15T20:20:25.321Z,86.16
2019-01-15T20:23:12.933Z,85.98
2019-01-15T20:26:02.924Z,85.88
2019-01-15T20:28:53.907Z,86.18
2019-01-15T20:31:43.230Z,86.17
2019-01-15T20:34:32.169Z,86.17
2019-01-15T20:37:35.717Z,86.40
2019-01-15T20:40:34.650Z,86.11
2019-01-15T20:43:27.427Z,86.00
2019-01-15T20:46:21.105Z,85.66
2019-01-15T20:49:13.895Z,86.02
2019-01-15T20:52:03.811Z,86.22
2019-01-15T20:54:41.970Z,86.34
2019-01-15T20:57:31.611Z,86.17
2019-01-15T21:00:21.707Z,86.20
2019-01-15T21:03:11.984Z,86.33
2019-01-15T21:06:01.411Z,86.18
2019-01-15T21:08:54.779Z,85.99
2019-01-15T21:26:43.587Z,86.42
2019-01-15T21:29:28.111Z,86.50
2019-01-15T21:38:41.009Z,86.72
2019-01-15T21:41:37.070Z,86.56
2019-01-15T21:44:30.384Z,86.59
2019-01-15T21:47:19.338Z,86.68
2019-01-15T21:50:08.612Z,86.25
2019-01-15T21:52:57.420Z,86.81
2019-01-15T21:55:46.301Z,86.61
2019-01-15T21:58:39.767Z,87.02
2019-01-15T22:01:39.118Z,86.70
2019-01-15T22:04:20.107Z,86.45
2019-01-15T22:07:09.314Z,86.80
2019-01-15T22:10:00.957Z,86.88
2019-01-15T22:12:56.949Z,87.20
2019-01-15T22:15:50.307Z,87.05
2019-01-15T22:18:39.496Z,87.01
2019-01-15T22:21:33.182Z,86.99
2019-01-15T22:24:21.780Z,87.09
2019-01-15T22:27:14.758Z,86.87
2019-01-15T22:30:03.519Z,87.06
2019-01-15T22:33:25.136Z,87.24
2019-01-15T22:36:27.026Z,86.85
2019-01-15T22:39:20.614Z,87.20
2019-01-15T22:42:09.399Z,87.14
2019-01-15T22:45:17.828Z,87.24
2019-01-15T22:48:06.813Z,86.92
2019-01-15T22:50:59.775Z,86.80
2019-01-15T22:53:59.846Z,86.87
2019-01-15T22:56:50.738Z,86.59
2019-01-15T22:59:54.361Z,86.53
2019-01-15T23:03:12.909Z,86.58
2019-01-15T23:06:11.645Z,86.51
2019-01-15T23:09:00.029Z,86.54
2019-01-15T23:11:42.863Z,86.57
2019-01-15T23:14:31.877Z,86.11
2019-01-15T23:17:19.339Z,86.31
2019-01-15T23:20:08.034Z,86.37
2019-01-15T23:23:01.555Z,86.87
2019-01-15T23:25:49.342Z,86.71
2019-01-15T23:28:39.343Z,86.72
2019-01-15T23:31:38.451Z,86.62
2019-01-15T23:34:28.519Z,86.51
2019-01-15T23:37:17.032Z,86.11
2019-01-15T23:40:06.131Z,86.47
2019-01-15T23:42:55.244Z,86.44
2019-01-15T23:45:39.452Z,86.31
2019-01-15T23:48:29.942Z,86.26
2019-01-15T23:51:38.095Z,86.15
2019-01-15T23:54:26.598Z,86.27
2019-01-15T23:57:22.406Z,86.39
